createdAt,value
2018-10-16T00:01:17.661Z,13.10
2018-10-16T00:03:46.359Z,14.53
2018-10-16T00:06:15.171Z,15.07
2018-10-16T00:08:43.827Z,13.47
2018-10-16T00:11:12.579Z,13.83
2018-10-16T00:13:41.231Z,13.90
2018-10-16T00:16:09.997Z,12.33
2018-10-16T00:18:38.707Z,13.73
2018-10-16T00:21:07.422Z,11.67
2018-10-16T00:23:36.144Z,11.80
2018-10-16T00:26:04.897Z,11.77
2018-10-16T00:28:33.586Z,12.43
2018-10-16T00:31:02.320Z,12.87
2018-10-16T00:33:31.188Z,12.47
2018-10-16T00:35:59.951Z,14.27
2018-10-16T00:38:28.684Z,14.73
2018-10-16T00:40:57.410Z,15.93
2018-10-16T00:43:26.187Z,14.87
2018-10-16T00:45:54.874Z,16.07
2018-10-16T00:48:23.628Z,15.43
2018-10-16T00:50:52.347Z,15.60
2018-10-16T00:53:21.115Z,14.83
2018-10-16T00:55:49.779Z,15.77
2018-10-16T00:58:18.507Z,16.40
2018-10-16T01:00:47.195Z,17.30
2018-10-16T01:03:15.913Z,18.17
2018-10-16T01:05:45.371Z,19.43
2018-10-16T01:08:14.120Z,17.70
2018-10-16T01:10:42.848Z,17.80
2018-10-16T01:13:11.635Z,15.93
2018-10-16T01:15:40.341Z,15.17
2018-10-16T01:18:09.015Z,13.43
2018-10-16T01:20:37.721Z,13.40
2018-10-16T01:23:06.475Z,12.77
2018-10-16T01:25:35.223Z,14.00
2018-10-16T01:28:04.025Z,13.43
2018-10-16T01:30:32.776Z,14.47
2018-10-16T01:33:01.466Z,14.07
2018-10-16T01:35:30.188Z,13.53
2018-10-16T01:37:58.859Z,12.03
2018-10-16T01:40:27.546Z,13.83
2018-10-16T01:42:56.241Z,11.97
2018-10-16T01:45:25.002Z,11.93
2018-10-16T01:47:53.732Z,12.27
2018-10-16T01:50:22.461Z,12.60
2018-10-16T01:52:57.849Z,13.33
2018-10-16T01:55:26.601Z,13.33
2018-10-16T01:57:55.291Z,13.47
2018-10-16T02:00:23.996Z,13.60
2018-10-16T02:02:52.674Z,13.83
2018-10-16T02:05:21.479Z,13.30
2018-10-16T02:07:50.720Z,14.27
2018-10-16T02:10:19.385Z,13.90
2018-10-16T02:12:48.115Z,14.67
2018-10-16T02:15:16.798Z,13.77
2018-10-16T02:17:45.507Z,14.07
2018-10-16T02:20:14.276Z,13.87
2018-10-16T02:22:42.975Z,13.63
2018-10-16T02:25:11.682Z,14.77
2018-10-16T02:27:40.909Z,14.80
2018-10-16T02:30:09.679Z,14.03
2018-10-16T02:32:38.478Z,14.07
2018-10-16T02:35:08.745Z,13.87
2018-10-16T02:37:37.463Z,13.70
2018-10-16T02:40:07.377Z,14.00
2018-10-16T02:42:36.108Z,15.87
2018-10-16T02:45:05.659Z,15.83
2018-10-16T02:47:34.419Z,17.03
2018-10-16T02:50:03.166Z,17.07
2018-10-16T02:52:31.917Z,16.43
2018-10-16T02:55:00.670Z,18.20
2018-10-16T02:57:29.363Z,18.67
2018-10-16T02:59:58.078Z,18.37
2018-10-16T03:02:26.838Z,17.80
2018-10-16T03:04:55.538Z,18.17
2018-10-16T03:07:24.306Z,16.53
2018-10-16T03:09:52.995Z,17.10
2018-10-16T03:12:21.744Z,15.47
2018-10-16T03:14:50.518Z,16.57
2018-10-16T03:17:19.212Z,16.80
2018-10-16T03:19:47.952Z,15.90
2018-10-16T03:22:16.659Z,15.57
2018-10-16T03:24:45.384Z,16.17
2018-10-16T03:27:14.124Z,16.50
2018-10-16T03:29:42.829Z,15.43
2018-10-16T03:32:11.573Z,15.63
2018-10-16T03:34:40.289Z,16.47
2018-10-16T03:37:09.003Z,16.07
2018-10-16T03:39:37.774Z,16.07
2018-10-16T03:42:06.501Z,16.83
2018-10-16T03:44:35.225Z,15.60
2018-10-16T03:47:04.033Z,16.43
2018-10-16T03:49:32.728Z,15.97
2018-10-16T03:52:01.424Z,14.80
2018-10-16T03:54:30.160Z,14.07
2018-10-16T03:56:58.886Z,14.30
2018-10-16T03:59:27.635Z,12.83
2018-10-16T04:01:56.338Z,13.73
2018-10-16T04:04:25.054Z,13.17
2018-10-16T04:06:53.790Z,13.90
2018-10-16T04:09:22.489Z,13.17
2018-10-16T04:11:51.185Z,13.50
2018-10-16T04:14:19.903Z,14.10
2018-10-16T04:16:48.621Z,13.63
2018-10-16T04:19:17.349Z,14.10
2018-10-16T04:21:47.166Z,14.60
2018-10-16T04:24:16.206Z,14.00
2018-10-16T04:26:44.997Z,15.07
2018-10-16T04:29:13.721Z,15.17
2018-10-16T04:31:42.386Z,15.40
2018-10-16T04:34:11.186Z,15.27
2018-10-16T04:36:39.932Z,15.60
2018-10-16T04:39:11.192Z,14.97
2018-10-16T04:41:40.046Z,15.40
2018-10-16T04:44:08.660Z,15.50
2018-10-16T04:46:37.419Z,15.77
2018-10-16T04:49:06.450Z,16.00
2018-10-16T04:51:35.293Z,16.10
2018-10-16T04:54:04.179Z,17.13
2018-10-16T04:56:33.275Z,16.67
2018-10-16T04:59:01.984Z,15.60
2018-10-16T05:01:30.716Z,15.90
2018-10-16T05:03:59.443Z,16.63
2018-10-16T05:06:28.227Z,15.80
2018-10-16T05:08:57.005Z,17.00
2018-10-16T05:11:25.738Z,15.60
2018-10-16T05:13:54.482Z,16.03
2018-10-16T05:16:23.221Z,16.40
2018-10-16T05:18:51.974Z,17.47
2018-10-16T05:21:20.686Z,18.80
2018-10-16T05:23:49.388Z,18.93
2018-10-16T05:26:18.125Z,18.87
2018-10-16T05:28:46.873Z,20.57
2018-10-16T05:31:15.679Z,19.33
2018-10-16T05:33:44.317Z,18.53
2018-10-16T05:36:13.088Z,18.57
2018-10-16T05:38:41.784Z,18.30
2018-10-16T05:41:10.508Z,17.67
2018-10-16T05:43:39.295Z,18.20
2018-10-16T05:46:07.999Z,19.00
2018-10-16T05:48:36.734Z,18.80
2018-10-16T05:51:05.506Z,18.40
2018-10-16T05:53:34.222Z,17.17
2018-10-16T05:56:06.305Z,15.83
2018-10-16T05:58:35.469Z,13.90
2018-10-16T06:01:04.327Z,13.27
2018-10-16T06:03:33.190Z,13.93
2018-10-16T06:06:01.931Z,14.13
2018-10-16T06:08:30.623Z,13.00
2018-10-16T06:10:59.376Z,13.27
2018-10-16T06:15:33.693Z,18.90
2018-10-16T06:18:02.418Z,18.93
2018-10-16T06:20:31.167Z,19.50
2018-10-16T06:22:59.870Z,18.37
2018-10-16T06:25:28.629Z,17.63
2018-10-16T06:27:57.326Z,18.33
2018-10-16T06:30:26.198Z,17.97
2018-10-16T06:32:54.883Z,17.33
2018-10-16T06:35:23.614Z,18.10
2018-10-16T06:37:52.328Z,16.87
2018-10-16T06:40:21.021Z,17.27
2018-10-16T06:42:49.800Z,16.60
2018-10-16T06:45:18.544Z,17.37
2018-10-16T06:47:47.383Z,17.17
2018-10-16T06:50:16.026Z,17.57
2018-10-16T06:52:44.787Z,17.60
2018-10-16T06:55:13.608Z,18.47
2018-10-16T06:57:42.259Z,16.73
2018-10-16T07:00:11.028Z,16.87
2018-10-16T07:02:39.712Z,16.27
2018-10-16T07:05:08.817Z,16.77
2018-10-16T07:07:37.493Z,17.47
2018-10-16T07:10:07.609Z,17.73
2018-10-16T07:12:36.339Z,17.60
2018-10-16T07:15:05.289Z,16.70
2018-10-16T07:17:33.960Z,16.40
2018-10-16T07:20:02.690Z,17.33
2018-10-16T07:22:31.454Z,17.03
2018-10-16T07:25:00.190Z,17.20
2018-10-16T07:27:28.907Z,17.80
2018-10-16T07:29:57.680Z,17.67
2018-10-16T07:32:26.431Z,16.27
2018-10-16T07:34:55.145Z,15.40
2018-10-16T07:37:23.883Z,15.53
2018-10-16T07:39:52.565Z,13.87
2018-10-16T07:42:21.259Z,14.40
2018-10-16T07:44:49.997Z,13.20
2018-10-16T07:47:18.730Z,13.57
2018-10-16T07:49:47.474Z,13.30
2018-10-16T07:52:16.223Z,13.37
2018-10-16T07:54:44.926Z,14.37
2018-10-16T07:57:13.674Z,13.67
2018-10-16T07:59:42.379Z,13.50
2018-10-16T08:02:11.145Z,13.37
2018-10-16T08:04:39.829Z,13.87
2018-10-16T08:07:08.565Z,14.07
2018-10-16T08:09:37.247Z,14.60
2018-10-16T08:12:08.342Z,13.80
2018-10-16T08:14:37.550Z,13.53
2018-10-16T08:17:06.785Z,13.47
2018-10-16T08:19:35.551Z,13.63
2018-10-16T08:22:04.367Z,14.50
2018-10-16T08:24:33.061Z,13.90
2018-10-16T08:27:01.803Z,13.50
2018-10-16T08:29:30.552Z,13.00
2018-10-16T08:31:59.268Z,12.40
2018-10-16T08:34:28.047Z,12.10
2018-10-16T08:36:56.930Z,13.13
2018-10-16T08:39:35.100Z,13.63
2018-10-16T08:44:16.235Z,12.57
2018-10-16T08:46:55.887Z,12.37
2018-10-16T08:49:35.654Z,13.47
2018-10-16T08:52:04.461Z,11.70
2018-10-16T08:54:33.155Z,12.23
2018-10-16T08:57:01.866Z,12.30
2018-10-16T08:59:30.574Z,11.70
2018-10-16T09:01:59.288Z,11.97
2018-10-16T09:04:28.006Z,12.20
2018-10-16T09:06:56.738Z,11.80
2018-10-16T09:09:25.416Z,11.47
2018-10-16T09:11:54.139Z,11.87
2018-10-16T09:14:22.921Z,10.87
2018-10-16T09:16:51.604Z,11.27
2018-10-16T09:19:20.420Z,11.20
2018-10-16T09:21:49.156Z,11.47
2018-10-16T09:24:17.896Z,10.93
2018-10-16T09:26:46.602Z,10.83
2018-10-16T09:29:15.278Z,11.30
2018-10-16T09:31:44.029Z,11.43
2018-10-16T09:34:12.689Z,10.60
2018-10-16T09:36:41.444Z,10.80
2018-10-16T09:39:11.417Z,11.00
2018-10-16T09:41:40.132Z,10.70
2018-10-16T09:44:08.855Z,11.17
2018-10-16T09:46:38.004Z,11.00
2018-10-16T09:49:06.747Z,10.37
2018-10-16T09:51:35.561Z,11.55
2018-10-16T09:54:04.346Z,10.60
2018-10-16T09:56:33.036Z,9.88
2018-10-16T09:59:01.783Z,9.33
2018-10-16T10:01:35.922Z,8.48
2018-10-16T10:04:04.593Z,9.30
2018-10-16T10:06:33.394Z,9.15
2018-10-16T10:09:02.102Z,9.23
2018-10-16T10:11:30.786Z,9.03
2018-10-16T10:13:59.514Z,9.78
2018-10-16T10:16:28.300Z,8.75
2018-10-16T10:18:57.040Z,8.50
2018-10-16T10:21:25.765Z,8.68
2018-10-16T10:23:54.417Z,8.85
2018-10-16T10:26:23.127Z,9.13
2018-10-16T10:28:51.818Z,9.83
2018-10-16T10:31:20.504Z,10.00
2018-10-16T10:33:49.204Z,10.77
2018-10-16T10:36:17.863Z,11.00
2018-10-16T10:38:46.595Z,9.90
2018-10-16T10:41:15.350Z,11.13
2018-10-16T10:43:44.075Z,10.17
2018-10-16T10:46:12.779Z,9.63
2018-10-16T10:48:41.430Z,9.70
2018-10-16T10:51:10.376Z,8.80
2018-10-16T10:53:38.807Z,9.40
2018-10-16T10:56:07.476Z,9.27
2018-10-16T10:58:36.158Z,8.77
2018-10-16T11:01:04.878Z,8.27
2018-10-16T11:03:33.750Z,8.40
2018-10-16T11:06:02.274Z,8.53
2018-10-16T11:08:31.059Z,9.13
2018-10-16T11:10:59.769Z,9.20
2018-10-16T11:13:28.424Z,9.03
2018-10-16T11:15:57.146Z,9.60
2018-10-16T11:18:25.862Z,8.83
2018-10-16T11:20:54.619Z,8.80
2018-10-16T11:23:23.320Z,8.77
2018-10-16T11:25:51.975Z,8.23
2018-10-16T11:28:20.660Z,8.67
2018-10-16T11:30:49.452Z,8.17
2018-10-16T11:33:18.164Z,7.70
2018-10-16T11:35:46.972Z,9.30
2018-10-16T11:38:15.635Z,9.07
2018-10-16T11:40:44.424Z,8.33
2018-10-16T11:43:13.155Z,7.83
2018-10-16T11:45:41.844Z,8.00
2018-10-16T11:48:10.605Z,7.23
2018-10-16T11:50:39.307Z,7.20
2018-10-16T11:53:07.983Z,8.30
2018-10-16T11:55:36.738Z,8.30
2018-10-16T11:58:05.516Z,8.23
2018-10-16T12:00:34.303Z,7.93
2018-10-16T12:03:02.971Z,8.43
2018-10-16T12:05:31.760Z,8.17
2018-10-16T12:08:00.528Z,10.07
2018-10-16T12:10:29.248Z,10.33
2018-10-16T12:12:57.936Z,8.73
2018-10-16T12:15:26.686Z,9.03
2018-10-16T12:18:03.991Z,10.03
2018-10-16T12:20:35.669Z,11.47
2018-10-16T12:23:04.458Z,10.57
2018-10-16T12:25:33.196Z,12.50
2018-10-16T12:28:01.940Z,12.03
2018-10-16T12:30:30.610Z,13.13
2018-10-16T12:32:59.384Z,14.27
2018-10-16T12:35:28.145Z,13.33
2018-10-16T12:37:56.887Z,12.93
2018-10-16T12:40:25.568Z,12.13
2018-10-16T12:43:00.954Z,12.83
2018-10-16T12:45:29.646Z,11.23
2018-10-16T12:47:58.397Z,11.10
2018-10-16T12:50:27.217Z,10.80
2018-10-16T12:52:55.839Z,10.43
2018-10-16T12:55:24.623Z,12.13
2018-10-16T12:57:53.336Z,12.77
2018-10-16T13:00:22.086Z,11.40
2018-10-16T13:02:50.878Z,10.67
2018-10-16T13:05:19.620Z,9.00
2018-10-16T13:07:48.441Z,9.10
2018-10-16T13:10:18.445Z,9.73
2018-10-16T13:12:47.559Z,10.97
2018-10-16T13:15:16.986Z,9.27
2018-10-16T13:17:45.648Z,8.30
2018-10-16T13:20:15.345Z,8.33
2018-10-16T13:22:45.405Z,8.50
2018-10-16T13:25:15.094Z,7.50
2018-10-16T13:27:43.889Z,7.97
2018-10-16T13:30:16.291Z,7.40
2018-10-16T13:32:45.683Z,8.17
2018-10-16T13:35:16.009Z,8.73
2018-10-16T13:37:45.234Z,8.90
2018-10-16T13:40:14.252Z,8.20
2018-10-16T13:42:43.068Z,8.23
2018-10-16T13:45:12.734Z,8.03
2018-10-16T13:47:41.521Z,7.80
2018-10-16T13:50:11.851Z,7.70
2018-10-16T13:52:40.652Z,8.20
2018-10-16T13:55:10.268Z,8.00
2018-10-16T13:57:38.980Z,8.03
2018-10-16T14:00:12.880Z,7.90
2018-10-16T14:02:42.517Z,7.60
2018-10-16T14:05:11.194Z,7.67
2018-10-16T14:07:39.970Z,7.67
2018-10-16T14:10:10.124Z,8.27
2018-10-16T14:12:40.024Z,7.77
2018-10-16T14:15:09.156Z,7.87
2018-10-16T14:17:38.074Z,7.70
2018-10-16T14:20:07.668Z,7.20
2018-10-16T14:22:36.944Z,7.23
2018-10-16T14:25:08.529Z,6.90
2018-10-16T14:27:38.034Z,7.23
2018-10-16T14:30:07.975Z,7.53
2018-10-16T14:32:36.711Z,6.60
2018-10-16T14:35:06.439Z,6.70
2018-10-16T14:37:35.225Z,6.93
2018-10-16T14:40:04.082Z,7.17
2018-10-16T14:42:32.784Z,6.97
2018-10-16T14:45:01.524Z,7.07
2018-10-16T14:47:30.304Z,7.13
2018-10-16T14:49:59.086Z,6.47
2018-10-16T14:52:27.863Z,6.67
2018-10-16T14:54:56.602Z,6.87
2018-10-16T14:57:25.307Z,6.80
2018-10-16T14:59:54.071Z,6.67
2018-10-16T15:02:22.757Z,7.03
2018-10-16T15:04:51.618Z,7.00
2018-10-16T15:07:20.314Z,6.50
2018-10-16T15:09:49.097Z,6.63
2018-10-16T15:12:17.891Z,6.33
2018-10-16T15:14:46.567Z,6.23
2018-10-16T15:17:15.309Z,6.70
2018-10-16T15:19:44.038Z,6.83
2018-10-16T15:22:12.767Z,6.80
2018-10-16T15:24:41.459Z,7.03
2018-10-16T15:27:10.215Z,6.67
2018-10-16T15:29:38.930Z,7.20
2018-10-16T15:32:07.707Z,6.30
2018-10-16T15:34:36.379Z,6.73
2018-10-16T15:37:05.405Z,7.10
2018-10-16T15:39:34.086Z,6.70
2018-10-16T15:42:02.849Z,6.87
2018-10-16T15:44:31.721Z,6.37
2018-10-16T15:47:00.440Z,6.67
2018-10-16T15:49:29.139Z,6.37
2018-10-16T15:51:57.892Z,6.30
2018-10-16T15:54:26.661Z,7.20
2018-10-16T15:56:55.465Z,7.43
2018-10-16T15:59:24.161Z,7.00
2018-10-16T16:01:52.841Z,6.93
2018-10-16T16:04:21.601Z,7.20
2018-10-16T16:06:50.297Z,7.30
2018-10-16T16:09:19.036Z,7.43
2018-10-16T16:11:47.704Z,7.63
2018-10-16T16:14:16.414Z,7.87
2018-10-16T16:16:45.117Z,7.50
2018-10-16T16:19:13.849Z,7.83
2018-10-16T16:21:42.594Z,7.63
2018-10-16T16:24:11.295Z,7.43
2018-10-16T16:26:40.214Z,7.07
2018-10-16T16:29:09.007Z,7.10
2018-10-16T16:31:37.730Z,6.67
2018-10-16T16:34:06.683Z,7.20
2018-10-16T16:36:35.413Z,7.03
2018-10-16T16:39:06.134Z,7.27
2018-10-16T16:41:34.828Z,7.67
2018-10-16T16:44:03.741Z,7.37
2018-10-16T16:46:32.374Z,7.40
2018-10-16T16:49:01.071Z,7.67
2018-10-16T16:51:29.816Z,7.07
2018-10-16T16:53:58.593Z,7.07
2018-10-16T16:56:27.293Z,7.40
2018-10-16T16:58:55.997Z,7.57
2018-10-16T17:01:24.688Z,6.80
2018-10-16T17:03:53.373Z,7.33
2018-10-16T17:06:22.127Z,7.40
2018-10-16T17:08:50.892Z,7.03
2018-10-16T17:11:19.677Z,7.70
2018-10-16T17:13:48.346Z,7.60
2018-10-16T17:16:17.100Z,8.30
2018-10-16T17:18:45.750Z,8.17
2018-10-16T17:21:14.482Z,9.43
2018-10-16T17:23:43.142Z,9.33
2018-10-16T17:26:12.060Z,9.57
2018-10-16T17:28:40.584Z,10.00
2018-10-16T17:31:09.252Z,10.50
2018-10-16T17:33:37.987Z,10.80
2018-10-16T17:36:06.685Z,13.20
2018-10-16T17:38:35.416Z,17.10
2018-10-16T17:41:04.164Z,14.53
2018-10-16T17:43:32.921Z,14.20
2018-10-16T17:46:02.255Z,15.50
2018-10-16T17:48:30.974Z,13.33
2018-10-16T17:50:59.746Z,11.90
2018-10-16T17:53:28.523Z,12.93
2018-10-16T17:55:57.194Z,12.37
2018-10-16T17:58:25.917Z,10.87
2018-10-16T18:00:54.634Z,9.80
2018-10-16T18:03:23.352Z,10.60
2018-10-16T18:05:52.261Z,11.43
2018-10-16T18:08:21.014Z,11.13
2018-10-16T18:10:49.719Z,12.60
2018-10-16T18:13:18.408Z,12.63
2018-10-16T18:15:47.264Z,14.03
2018-10-16T18:18:16.056Z,13.70
2018-10-16T18:20:44.707Z,12.63
2018-10-16T18:23:13.378Z,11.70
2018-10-16T18:25:42.088Z,10.67
2018-10-16T18:28:10.866Z,12.30
2018-10-16T18:30:39.604Z,13.80
2018-10-16T18:33:08.423Z,11.43
2018-10-16T18:35:37.129Z,11.70
2018-10-16T18:38:05.958Z,11.10
2018-10-16T18:40:34.714Z,11.33
2018-10-16T18:43:03.409Z,11.63
2018-10-16T18:45:32.231Z,12.37
2018-10-16T18:48:00.911Z,12.17
2018-10-16T18:50:29.642Z,11.77
2018-10-16T18:52:58.340Z,12.03
2018-10-16T18:55:27.090Z,12.57
2018-10-16T18:57:55.831Z,12.57
2018-10-16T19:00:24.586Z,13.17
2018-10-16T19:02:53.344Z,13.03
2018-10-16T19:05:22.110Z,12.40
2018-10-16T19:07:50.936Z,14.00
2018-10-16T19:10:19.804Z,14.50
2018-10-16T19:12:48.514Z,15.30
2018-10-16T19:15:18.002Z,13.47
2018-10-16T19:17:47.230Z,11.17
2018-10-16T19:20:16.988Z,11.63
2018-10-16T19:22:46.431Z,10.97
2018-10-16T19:25:18.808Z,13.63
2018-10-16T19:27:47.640Z,13.80
2018-10-16T19:30:16.266Z,14.70
2018-10-16T19:32:45.028Z,14.30
2018-10-16T19:35:14.835Z,14.40
2018-10-16T19:37:43.687Z,14.07
2018-10-16T19:40:12.710Z,15.60
2018-10-16T19:42:41.526Z,16.77
2018-10-16T19:45:11.177Z,16.13
2018-10-16T19:47:40.466Z,13.57
2018-10-16T19:50:10.035Z,12.33
2018-10-16T19:52:38.784Z,12.40
2018-10-16T19:55:07.514Z,12.70
2018-10-16T19:57:36.389Z,13.10
2018-10-16T20:00:06.295Z,14.13
2018-10-16T20:02:34.941Z,14.23
2018-10-16T20:05:03.707Z,15.03
2018-10-16T20:07:32.655Z,15.37
2018-10-16T20:10:01.380Z,15.37
2018-10-16T20:12:30.181Z,15.73
2018-10-16T20:14:58.893Z,16.70
2018-10-16T20:17:27.609Z,14.90
2018-10-16T20:19:56.374Z,14.73
2018-10-16T20:22:25.111Z,13.93
2018-10-16T20:24:53.970Z,15.57
2018-10-16T20:27:23.665Z,14.83
2018-10-16T20:29:52.359Z,16.00
2018-10-16T20:32:21.044Z,14.70
2018-10-16T20:34:49.790Z,14.90
2018-10-16T20:37:18.545Z,15.00
2018-10-16T20:39:47.270Z,15.33
2018-10-16T20:42:15.956Z,14.67
2018-10-16T20:44:44.684Z,17.10
2018-10-16T20:47:13.456Z,16.37
2018-10-16T20:49:42.201Z,16.03
2018-10-16T20:52:10.901Z,14.53
2018-10-16T20:54:39.623Z,15.10
2018-10-16T20:57:08.403Z,16.33
2018-10-16T20:59:37.288Z,16.43
2018-10-16T21:02:06.412Z,17.23
2018-10-16T21:04:35.173Z,18.03
2018-10-16T21:07:04.028Z,17.17
2018-10-16T21:09:32.611Z,15.50
2018-10-16T21:12:01.338Z,16.27
2018-10-16T21:14:30.071Z,13.53
2018-10-16T21:16:58.782Z,13.17
2018-10-16T21:19:27.503Z,14.90
2018-10-16T21:21:56.226Z,15.33
2018-10-16T21:24:25.115Z,15.43
2018-10-16T21:27:05.853Z,16.33
2018-10-16T21:29:34.871Z,17.43
2018-10-16T21:32:03.965Z,17.93
2018-10-16T21:34:32.648Z,16.50
2018-10-16T21:37:01.464Z,17.17
2018-10-16T21:39:30.115Z,18.10
2018-10-16T21:41:58.839Z,15.70
2018-10-16T21:44:27.544Z,14.80
2018-10-16T21:46:56.241Z,14.87
2018-10-16T21:49:24.947Z,15.07
2018-10-16T21:51:53.644Z,15.00
2018-10-16T21:54:22.398Z,16.07
2018-10-16T21:56:51.085Z,18.27
2018-10-16T21:59:19.934Z,19.13
2018-10-16T22:01:53.917Z,13.60
2018-10-16T22:04:22.574Z,15.97
2018-10-16T22:06:51.450Z,15.07
2018-10-16T22:09:20.196Z,16.10
2018-10-16T22:11:48.912Z,14.90
2018-10-16T22:14:17.668Z,14.47
2018-10-16T22:16:46.391Z,16.00
2018-10-16T22:19:15.172Z,16.50
2018-10-16T22:21:43.885Z,18.03
2018-10-16T22:24:12.579Z,18.13
2018-10-16T22:26:41.296Z,19.30
2018-10-16T22:29:10.127Z,20.30
2018-10-16T22:31:39.220Z,21.57
2018-10-16T22:34:07.949Z,19.33
2018-10-16T22:36:36.663Z,20.73
2018-10-16T22:39:08.502Z,21.73
2018-10-16T22:41:37.452Z,22.20
2018-10-16T22:44:06.692Z,21.20
2018-10-16T22:46:35.768Z,20.80
2018-10-16T22:49:04.797Z,15.77
2018-10-16T22:51:33.760Z,17.47
2018-10-16T22:54:02.477Z,17.10
2018-10-16T22:56:31.215Z,15.73
2018-10-16T22:58:59.958Z,17.33
2018-10-16T23:01:28.775Z,16.60
2018-10-16T23:03:57.566Z,17.97
2018-10-16T23:06:26.273Z,18.27
2018-10-16T23:08:54.989Z,21.00
2018-10-16T23:11:23.675Z,20.00
2018-10-16T23:13:52.336Z,17.03
2018-10-16T23:16:21.054Z,18.50
2018-10-16T23:18:49.808Z,21.43
2018-10-16T23:21:18.513Z,21.97
2018-10-16T23:23:47.281Z,22.10
2018-10-16T23:26:16.010Z,20.57
2018-10-16T23:28:44.807Z,20.27
2018-10-16T23:31:13.646Z,18.87
2018-10-16T23:33:42.246Z,21.57
2018-10-16T23:36:10.951Z,24.03
2018-10-16T23:38:39.692Z,22.70
2018-10-16T23:41:08.448Z,21.27
2018-10-16T23:43:37.164Z,20.03
2018-10-16T23:46:06.574Z,20.77
2018-10-16T23:48:35.320Z,21.00
2018-10-16T23:51:04.048Z,21.10
2018-10-16T23:53:32.718Z,21.60
2018-10-16T23:56:01.453Z,19.03
2018-10-16T23:58:30.165Z,18.33
